Hollister, Wisconsin
Current Conditions -  °F | °C
As of 7:35 AM on Friday 24 Oct 2014 (Local Time) from KAIG Reporting Station
Moderate Fog Moderate Fog  
Wind Chill:   Ceiling: 300
Heat Index:   Visibility: 0mi
Dew Point:   Wind: 0mph
Humidity: 100%   Direction: NA
Pressure: 30"   Gusts: NA
Location:  45.261°N, 88.731°W
Report Text: KAIG 241235Z AUTO 00000KT M1/4SM FG OVC003 06/06 A3000 RMK AO2 T00560056
Loading
Personal Weather Stations






























Interactive Weather Map
Tropical Storm Tracking
New forecast layout! Learn more

10-Day Weather Forecast

Advertisements
Track Severe Weather on mobile